CDT,Max TemperatureF,Mean TemperatureF,Min TemperatureF,Max Dew PointF,MeanDew PointF,Min DewpointF,Max Humidity, Mean Humidity, Min Humidity, Max Sea Level PressureIn, Mean Sea Level PressureIn, Min Sea Level PressureIn, Max VisibilityMiles, Mean VisibilityMiles, Min VisibilityMiles, Max Wind SpeedMPH, Mean Wind SpeedMPH, Max Gust SpeedMPH,PrecipitationIn, CloudCover, Events, WindDirDegrees
2013-4-1,47,37,28,31,24,20,86,64,36,30.29,30.22,30.09,10,10,10,25,14,31,0.00,2,Thunderstorm,57
2013-4-2,54,40,27,28,24,22,84,55,28,30.25,30.21,30.16,10,10,10,13,7,18,0.00,0,,189
2013-4-3,54,42,29,32,26,23,82,57,31,30.27,30.22,30.17,10,10,10,20,8,26,0.00,0,,192
2013-4-4,64,47,30,35,32,28,92,63,32,30.19,30.12,30.07,10,10,4,12,8,16,0.00,0,,201
2013-4-5,75,54,34,42,34,30,89,52,20,30.09,29.88,29.64,10,10,7,29,13,43,0.00,0,,158
2013-4-6,72,60,48,42,36,28,70,44,21,29.83,29.73,29.61,10,10,7,33,12,43,0.00,1,,308
2013-4-7,64,54,45,49,41,30,89,62,40,29.83,29.73,29.62,10,10,2,24,8,31,0.34,3,Rain-Thunderstorm,154
2013-4-8,68,55,43,60,53,42,97,88,71,29.67,29.63,29.52,10,7,0,22,9,26,0.00,6,Fog-Thunderstorm,141
2013-4-9,48,41,22,58,28,19,95,89,80,30.08,29.83,29.44,10,6,1,52,28,74,1.04,8,Rain-Snow-Thunderstorm,3
2013-4-10,28,26,23,25,23,20,90,86,82,30.06,29.98,29.90,10,8,2,22,17,30,0.00,8,Snow,341
2013-4-11,35,28,23,28,24,20,90,79,69,29.91,29.78,29.74,10,10,2,23,14,30,0.00,6,Snow,309
2013-4-12,50,38,27,35,30,24,88,72,50,30.01,29.92,29.83,10,10,10,16,8,21,0.00,3,Rain,312
2013-4-13,66,49,32,48,38,30,96,70,39,30.02,29.76,29.43,10,10,7,26,9,33,0.00,2,,175
2013-4-14,59,50,41,48,34,18,90,58,24,29.74,29.48,29.24,10,10,10,34,16,43,0.00,1,,299
2013-4-15,48,40,32,31,24,17,75,55,41,30.05,29.89,29.72,10,10,10,16,10,23,0.00,6,,353
2013-4-16,45,40,34,31,28,25,81,61,47,30.17,30.10,30.04,10,10,10,23,14,29,0.00,8,,59
2013-4-17,42,36,31,35,32,28,93,85,63,30.08,29.95,29.86,10,8,2,34,17,44,0.00,8,Rain-Thunderstorm,24
2013-4-18,35,31,27,28,25,22,92,80,61,30.04,29.96,29.90,10,5,1,29,22,39,0.03,7,Snow,331
2013-4-19,51,38,25,32,26,20,80,64,44,30.05,30.00,29.97,10,10,10,18,11,26,0.00,2,,318
2013-4-20,56,44,33,34,29,25,83,59,39,30.09,30.04,29.99,10,10,10,23,13,29,0.00,2,,116
2013-4-21,70,52,33,44,37,31,94,59,27,30.07,30.01,29.95,10,10,5,22,9,29,0.00,2,,179
2013-4-22,46,38,31,45,36,26,97,90,79,30.28,30.07,29.93,10,7,0,31,18,40,0.97,8,Fog-Rain-Snow-Thunderstorm,38
2013-4-23,40,34,28,26,22,18,83,66,42,30.29,30.22,30.16,10,10,5,23,18,33,0.00,5,Snow,4
2013-4-24,61,42,25,34,25,16,83,59,18,30.23,30.15,30.08,10,10,10,26,9,38,0.00,1,,262
2013-4-25,72,52,33,35,29,20,86,49,15,30.23,30.09,29.94,10,10,10,32,11,45,0.03,0,Thunderstorm,191
2013-4-26,74,60,46,50,35,32,90,45,21,30.17,30.05,29.97,10,10,7,20,11,25,0.00,0,,152
2013-4-27,74,56,39,54,43,37,97,63,27,30.17,30.06,29.93,10,7,0,16,6,20,0.00,1,Fog,181
2013-4-28,88,68,49,47,39,26,85,44,11,29.93,29.80,29.68,10,10,10,29,14,36,0.00,0,,227
2013-4-29,82,68,53,50,42,37,60,42,22,29.82,29.70,29.51,10,10,10,22,12,29,0.00,0,,99
2013-4-30,71,62,52,54,41,25,70,47,25,29.90,29.70,29.51,10,10,10,29,16,41,0.00,1,Rain-Thunderstorm,45